Aviation Digital Data Service (ADDS)

Output produced by METARs form (1142 UTC 20 April 2014)
found at http://aviationweather.gov/adds/metars/
 
KRME 201133Z 2012/2112 10003KT P6SM FEW250 
     FM201600 15008KT P6SM SCT250 
     FM210200 11004KT P6SM BKN200